createdAt,value
2018-07-21T00:00:57.545Z,975.3
2018-07-21T00:02:01.237Z,975.3
2018-07-21T00:03:02.526Z,975.3
2018-07-21T00:04:06.135Z,975.3
2018-07-21T00:05:07.323Z,975.3
2018-07-21T00:06:08.524Z,975.3
2018-07-21T00:07:10.067Z,975.3
2018-07-21T00:08:11.280Z,975.3
2018-07-21T00:09:19.918Z,975.3
2018-07-21T00:10:23.522Z,975.3
2018-07-21T00:11:24.699Z,975.1
2018-07-21T00:12:26.188Z,975.3
2018-07-21T00:13:27.392Z,975.3
2018-07-21T00:14:28.579Z,975.3
2018-07-21T00:15:29.783Z,975.3
2018-07-21T00:16:31.027Z,975.3
2018-07-21T00:17:32.310Z,975.3
2018-07-21T00:18:33.489Z,975.3
2018-07-21T00:19:34.662Z,975.3
2018-07-21T00:20:38.264Z,975.3
2018-07-21T00:21:39.433Z,975.3
2018-07-21T00:22:40.694Z,975.3
2018-07-21T00:23:41.859Z,975.3
2018-07-21T00:24:43.353Z,975.3
2018-07-21T00:25:44.565Z,975.2
2018-07-21T00:26:45.770Z,975.3
2018-07-21T00:27:47.238Z,975.3
2018-07-21T00:28:48.423Z,975.3
2018-07-21T00:29:49.587Z,975.3
2018-07-21T00:30:50.760Z,975.2
2018-07-21T00:31:51.958Z,975.3
2018-07-21T00:32:53.219Z,975.3
2018-07-21T00:33:54.455Z,975.2
2018-07-21T00:34:56.620Z,975.2
2018-07-21T00:35:57.844Z,975.1
2018-07-21T00:36:59.044Z,975.2
2018-07-21T00:38:00.476Z,975.2
2018-07-21T00:39:01.663Z,975.1
2018-07-21T00:40:02.856Z,975.1
2018-07-21T00:41:06.051Z,975.1
2018-07-21T00:42:07.234Z,975.1
2018-07-21T00:43:08.699Z,975.1
2018-07-21T00:44:09.903Z,975.1
2018-07-21T00:45:11.134Z,975
2018-07-21T00:46:12.383Z,975.2
2018-07-21T00:47:14.038Z,975.2
2018-07-21T00:48:15.647Z,975.2
2018-07-21T00:49:16.815Z,975.1
2018-07-21T00:50:19.267Z,975.2
2018-07-21T00:51:20.482Z,975.2
2018-07-21T00:52:21.733Z,975.2
2018-07-21T00:53:23.811Z,975
2018-07-21T00:54:25.067Z,975.2
2018-07-21T00:55:26.192Z,975.1
2018-07-21T00:56:27.390Z,975.1
2018-07-21T00:57:28.595Z,975.2
2018-07-21T00:58:29.803Z,975.1
2018-07-21T00:59:31.007Z,975.1
2018-07-21T01:00:32.209Z,975.2
2018-07-21T01:01:33.724Z,975.1
2018-07-21T01:02:34.944Z,975.1
2018-07-21T01:03:36.141Z,975.1
2018-07-21T01:04:37.354Z,975.1
2018-07-21T01:05:39.683Z,975.1
2018-07-21T01:06:40.877Z,975.1
2018-07-21T01:07:42.060Z,975.1
2018-07-21T01:08:43.524Z,975
2018-07-21T01:09:44.723Z,974.9
2018-07-21T01:10:48.291Z,975
2018-07-21T01:11:49.459Z,975
2018-07-21T01:12:52.821Z,974.9
2018-07-21T01:13:54.042Z,975
2018-07-21T01:14:55.247Z,975
2018-07-21T01:15:56.434Z,975
2018-07-21T01:16:57.637Z,974.9
2018-07-21T01:17:58.844Z,975
2018-07-21T01:19:00.081Z,975
2018-07-21T01:20:01.284Z,974.8
2018-07-21T01:21:02.474Z,974.9
2018-07-21T01:22:03.745Z,975
2018-07-21T01:23:04.931Z,975
2018-07-21T01:24:07.936Z,975
2018-07-21T01:25:09.183Z,975
2018-07-21T01:26:10.400Z,975
2018-07-21T01:27:13.104Z,975
2018-07-21T01:28:14.368Z,975
2018-07-21T01:29:15.575Z,974.9
2018-07-21T01:30:16.807Z,975
2018-07-21T01:31:20.166Z,975
2018-07-21T01:32:21.415Z,974.7
2018-07-21T01:33:22.655Z,974.9
2018-07-21T01:34:23.909Z,975
2018-07-21T01:35:25.103Z,975
2018-07-21T01:36:26.293Z,975
2018-07-21T01:37:27.495Z,975
2018-07-21T01:38:28.686Z,975
2018-07-21T01:39:30.148Z,974.9
2018-07-21T01:40:31.613Z,974.9
2018-07-21T01:41:32.840Z,974.9
2018-07-21T01:42:34.059Z,974.9
2018-07-21T01:43:35.240Z,974.9
2018-07-21T01:44:36.492Z,974.9
2018-07-21T01:45:37.687Z,974.9
2018-07-21T01:46:38.860Z,974.8
2018-07-21T01:47:41.048Z,974.8
2018-07-21T01:48:42.263Z,974.8
2018-07-21T01:49:43.506Z,974.8
2018-07-21T01:50:44.761Z,974.8
2018-07-21T01:51:46.132Z,974.9
2018-07-21T01:52:47.589Z,974.8
2018-07-21T01:53:48.769Z,974.8
2018-07-21T01:54:50.012Z,974.8
2018-07-21T01:55:51.184Z,974.8
2018-07-21T01:56:53.436Z,974.8
2018-07-21T01:57:54.674Z,974.8
2018-07-21T01:58:55.884Z,974.8
2018-07-21T01:59:57.115Z,974.8
2018-07-21T02:00:58.322Z,974.8
2018-07-21T02:01:59.539Z,974.7
2018-07-21T02:03:00.719Z,974.7
2018-07-21T02:04:01.908Z,974.7
2018-07-21T02:05:03.128Z,974.7
2018-07-21T02:06:04.329Z,974.7
2018-07-21T02:07:05.547Z,974.7
2018-07-21T02:08:06.717Z,974.8
2018-07-21T02:09:07.915Z,974.7
2018-07-21T02:10:09.320Z,974.7
2018-07-21T02:11:10.511Z,974.8
2018-07-21T02:12:11.691Z,974.7
2018-07-21T02:13:12.895Z,974.8
2018-07-21T02:14:14.136Z,974.7
2018-07-21T02:15:15.341Z,974.8
2018-07-21T02:16:16.538Z,974.7
2018-07-21T02:17:17.749Z,974.8
2018-07-21T02:18:18.952Z,974.7
2018-07-21T02:19:20.166Z,974.7
2018-07-21T02:20:21.500Z,974.8
2018-07-21T02:21:22.943Z,974.7
2018-07-21T02:22:24.200Z,974.7
2018-07-21T02:23:26.009Z,974.7
2018-07-21T02:24:27.248Z,974.7
2018-07-21T02:25:28.467Z,974.7
2018-07-21T02:26:29.670Z,974.7
2018-07-21T02:27:30.855Z,974.4
2018-07-21T02:28:32.277Z,974.7
2018-07-21T02:29:33.542Z,974.6
2018-07-21T02:30:34.785Z,974.7
2018-07-21T02:31:35.950Z,974.7
2018-07-21T02:32:37.162Z,974.6
2018-07-21T02:33:38.364Z,974.6
2018-07-21T02:34:39.607Z,974.6
2018-07-21T02:35:40.804Z,974.6
2018-07-21T02:36:41.982Z,974.6
2018-07-21T02:37:45.660Z,974.6
2018-07-21T02:38:46.848Z,974.6
2018-07-21T02:39:48.023Z,974.6
2018-07-21T02:40:49.272Z,974.5
2018-07-21T02:41:50.800Z,974.6
2018-07-21T02:42:52.254Z,974.5
2018-07-21T02:43:53.464Z,974.5
2018-07-21T02:44:54.664Z,974.4
2018-07-21T02:45:55.897Z,974.5
2018-07-21T02:46:57.123Z,974.4
2018-07-21T02:47:58.350Z,974.4
2018-07-21T02:48:59.532Z,974.4
2018-07-21T02:50:00.737Z,974.4
2018-07-21T02:51:01.964Z,974.4
2018-07-21T02:52:03.156Z,974.4
2018-07-21T02:53:04.405Z,974.4
2018-07-21T02:54:05.707Z,974.4
2018-07-21T02:55:06.926Z,974.4
2018-07-21T02:56:10.301Z,974.4
2018-07-21T02:57:11.531Z,974.4
2018-07-21T02:58:12.746Z,974.4
2018-07-21T02:59:16.929Z,974.4
2018-07-21T03:00:18.111Z,974.4
2018-07-21T03:01:19.344Z,974.4
2018-07-21T03:02:20.565Z,974.4
2018-07-21T03:03:21.759Z,974.5
2018-07-21T03:04:22.997Z,974.4
2018-07-21T03:05:24.204Z,974.4
2018-07-21T03:06:25.433Z,974.4
2018-07-21T03:07:26.612Z,974.4
2018-07-21T03:08:27.856Z,974.4
2018-07-21T03:09:29.050Z,974.4
2018-07-21T03:10:30.259Z,974.4
2018-07-21T03:11:31.735Z,974.4
2018-07-21T03:12:32.934Z,974.4
2018-07-21T03:13:36.646Z,974.4
2018-07-21T03:14:37.848Z,974.4
2018-07-21T03:15:39.037Z,974.4
2018-07-21T03:16:40.274Z,974.4
2018-07-21T03:17:41.509Z,974.4
2018-07-21T03:18:45.120Z,974.5
2018-07-21T03:19:46.323Z,974.5
2018-07-21T03:20:47.511Z,974.4
2018-07-21T03:21:48.754Z,974.4
2018-07-21T03:22:49.953Z,974.5
2018-07-21T03:23:51.155Z,974.5
2018-07-21T03:24:52.345Z,974.5
2018-07-21T03:25:54.875Z,974.5
2018-07-21T03:26:56.399Z,974.5
2018-07-21T03:28:02.401Z,974.4
2018-07-21T03:29:03.655Z,974.5
2018-07-21T03:30:04.908Z,974.5
2018-07-21T03:31:06.088Z,974.3
2018-07-21T03:32:07.348Z,974.6
2018-07-21T03:33:08.603Z,974.6
2018-07-21T03:34:09.818Z,974.6
2018-07-21T03:35:11.025Z,974.6
2018-07-21T03:36:12.264Z,974.6
2018-07-21T03:37:13.540Z,974.6
2018-07-21T03:38:14.749Z,974.6
2018-07-21T03:39:15.947Z,974.6
2018-07-21T03:40:17.151Z,974.6
2018-07-21T03:41:22.415Z,974.6
2018-07-21T03:42:24.266Z,974.6
2018-07-21T03:43:25.456Z,974.6
2018-07-21T03:44:26.686Z,974.7
2018-07-21T03:45:27.892Z,974.7
2018-07-21T03:46:29.070Z,974.7
2018-07-21T03:47:30.312Z,974.7
2018-07-21T03:48:31.516Z,974.7
2018-07-21T03:49:35.003Z,974.7
2018-07-21T03:50:36.213Z,974.7
2018-07-21T03:51:38.412Z,974.7
2018-07-21T03:52:39.647Z,974.5
2018-07-21T03:53:45.667Z,974.6
2018-07-21T03:54:46.888Z,974.6
2018-07-21T03:55:50.210Z,974.6
2018-07-21T03:56:51.619Z,974.6
2018-07-21T03:57:52.932Z,974.4
2018-07-21T03:58:54.118Z,974.6
2018-07-21T03:59:55.305Z,974.6
2018-07-21T04:00:56.492Z,974.6
2018-07-21T04:01:57.687Z,974.5
2018-07-21T04:02:58.892Z,974.6
2018-07-21T04:04:00.318Z,974.5
2018-07-21T04:05:01.571Z,974.5
2018-07-21T04:06:04.955Z,974.3
2018-07-21T04:07:06.129Z,974.5
2018-07-21T04:08:07.355Z,974.3
2018-07-21T04:09:08.549Z,974.5
2018-07-21T04:10:09.737Z,974.3
2018-07-21T04:11:10.957Z,974.5
2018-07-21T04:12:12.237Z,974.5
2018-07-21T04:13:13.493Z,974.4
2018-07-21T04:14:14.729Z,974.4
2018-07-21T04:15:15.960Z,974.5
2018-07-21T04:16:17.162Z,974.5
2018-07-21T04:17:18.341Z,974.5
2018-07-21T04:18:19.614Z,974.4
2018-07-21T04:19:20.831Z,974.4
2018-07-21T04:20:22.070Z,974.4
2018-07-21T04:21:23.235Z,974.4
2018-07-21T04:22:26.535Z,974.4
2018-07-21T04:23:27.771Z,974.4
2018-07-21T04:24:28.929Z,974.4
2018-07-21T04:25:31.119Z,974.4
2018-07-21T04:26:32.321Z,974.4
2018-07-21T04:27:34.045Z,974.5
2018-07-21T04:28:35.349Z,974.5
2018-07-21T04:29:36.556Z,974.5
2018-07-21T04:30:37.782Z,974.5
2018-07-21T04:31:39.028Z,974.6
2018-07-21T04:32:40.219Z,974.6
2018-07-21T04:33:41.803Z,974.5
2018-07-21T04:34:43.004Z,974.5
2018-07-21T04:35:44.187Z,974.6
2018-07-21T04:36:45.373Z,974.5
2018-07-21T04:37:47.291Z,974.5
2018-07-21T04:38:48.501Z,974.5
2018-07-21T04:39:49.751Z,974.5
2018-07-21T04:40:51.206Z,974.5
2018-07-21T04:41:52.367Z,974.5
2018-07-21T04:42:53.536Z,974.5
2018-07-21T04:43:54.826Z,974.4
2018-07-21T04:44:58.398Z,974.4
2018-07-21T04:45:59.600Z,974.4
2018-07-21T04:47:00.788Z,974.5
2018-07-21T04:48:03.282Z,974.5
2018-07-21T04:49:04.528Z,974.5
2018-07-21T04:50:05.738Z,974.5
2018-07-21T04:51:08.152Z,974.5
2018-07-21T04:52:09.380Z,974.5
2018-07-21T04:53:10.576Z,974.5
2018-07-21T04:54:11.828Z,974.5
2018-07-21T04:55:13.025Z,974.5
2018-07-21T04:56:14.245Z,974.5
2018-07-21T04:57:15.479Z,974.5
2018-07-21T04:58:19.059Z,974.5
2018-07-21T04:59:20.315Z,974.5
2018-07-21T05:00:21.511Z,974.5
2018-07-21T05:01:22.712Z,974.5
2018-07-21T05:02:23.896Z,974.5
2018-07-21T05:03:25.096Z,974.5
2018-07-21T05:04:26.377Z,974.5
2018-07-21T05:05:27.612Z,974.5
2018-07-21T05:06:28.801Z,974.5
2018-07-21T05:07:30.237Z,974.5
2018-07-21T05:08:31.445Z,974.5
2018-07-21T05:09:32.668Z,974.5
2018-07-21T05:10:33.875Z,974.5
2018-07-21T05:11:35.281Z,974.5
2018-07-21T05:12:36.479Z,974.5
2018-07-21T05:13:37.691Z,974.5
2018-07-21T05:14:39.690Z,974.5
2018-07-21T05:15:40.904Z,974.5
2018-07-21T05:16:42.729Z,974.5
2018-07-21T05:17:43.960Z,974.5
2018-07-21T05:18:45.173Z,974.5
2018-07-21T05:19:46.406Z,974.4
2018-07-21T05:20:47.650Z,974.4
2018-07-21T05:21:48.822Z,974.5
2018-07-21T05:22:50.098Z,974.5
2018-07-21T05:23:51.357Z,974.5
2018-07-21T05:24:52.942Z,974.4
2018-07-21T05:25:54.167Z,974.3
2018-07-21T05:26:55.384Z,974.5
2018-07-21T05:27:56.588Z,974.5
2018-07-21T05:28:57.831Z,974.4
2018-07-21T05:29:59.109Z,974.4
2018-07-21T05:31:00.347Z,974.5
2018-07-21T05:32:01.554Z,974.5
2018-07-21T05:33:02.853Z,974.5
2018-07-21T05:34:04.040Z,974.5
2018-07-21T05:35:05.380Z,974.5
2018-07-21T05:36:06.581Z,974.5
2018-07-21T05:37:07.809Z,974.5
2018-07-21T05:38:08.983Z,974.4
2018-07-21T05:39:10.240Z,974.5
2018-07-21T05:40:11.384Z,974.5
2018-07-21T05:41:12.707Z,974.5
2018-07-21T05:42:13.911Z,974.6
2018-07-21T05:43:15.185Z,974.6
2018-07-21T05:44:16.387Z,974.6
2018-07-21T05:45:17.879Z,974.6
2018-07-21T05:46:20.111Z,974.6
2018-07-21T05:47:21.357Z,974.6
2018-07-21T05:48:22.537Z,974.6
2018-07-21T05:49:23.739Z,974.6
2018-07-21T05:50:25.336Z,974.6
2018-07-21T05:51:26.515Z,974.6
2018-07-21T05:52:27.726Z,974.7
2018-07-21T05:53:28.912Z,974.7
2018-07-21T05:54:30.142Z,974.7
2018-07-21T05:55:31.331Z,974.7
2018-07-21T05:56:32.552Z,974.7
2018-07-21T05:57:33.763Z,974.7
2018-07-21T05:58:34.968Z,974.7
2018-07-21T05:59:39.217Z,974.7
2018-07-21T06:00:40.749Z,974.7
2018-07-21T06:01:42.005Z,974.5
2018-07-21T06:02:45.503Z,974.7
2018-07-21T06:03:46.879Z,974.7
2018-07-21T06:04:50.512Z,974.7
2018-07-21T06:05:56.424Z,974.7
2018-07-21T06:06:59.771Z,974.7
2018-07-21T06:08:00.968Z,974.7
2018-07-21T06:09:02.600Z,974.7
2018-07-21T06:10:03.796Z,974.7
2018-07-21T06:11:05.089Z,974.8
2018-07-21T06:12:07.737Z,974.7
2018-07-21T06:13:08.966Z,974.8
2018-07-21T06:14:12.311Z,974.6
2018-07-21T06:15:14.887Z,974.6
2018-07-21T06:16:16.368Z,974.7
2018-07-21T06:17:17.567Z,974.6
2018-07-21T06:18:18.772Z,974.6
2018-07-21T06:19:19.979Z,974.6
2018-07-21T06:20:23.586Z,974.7
2018-07-21T06:21:27.570Z,974.7
2018-07-21T06:22:28.743Z,974.7
2018-07-21T06:23:29.929Z,974.6
2018-07-21T06:24:31.119Z,974.7
2018-07-21T06:25:32.592Z,974.7
2018-07-21T06:26:33.879Z,974.6
2018-07-21T06:27:35.098Z,974.7
2018-07-21T06:28:36.311Z,974.8
2018-07-21T06:29:37.510Z,974.8
2018-07-21T06:30:38.724Z,974.8
2018-07-21T06:31:39.981Z,974.8
2018-07-21T06:32:41.167Z,974.8
2018-07-21T06:33:43.238Z,974.8
2018-07-21T06:34:44.427Z,974.9
2018-07-21T06:35:45.704Z,974.9
2018-07-21T06:36:46.953Z,975
2018-07-21T06:37:48.158Z,975
2018-07-21T06:38:49.375Z,975.1
2018-07-21T06:39:50.606Z,975
2018-07-21T06:40:51.809Z,975.2
2018-07-21T06:41:55.373Z,975.2
2018-07-21T06:42:56.783Z,975.2
2018-07-21T06:43:58.083Z,975.3
2018-07-21T06:44:59.182Z,975.3
2018-07-21T06:46:00.373Z,975.3
2018-07-21T06:47:01.848Z,975.4
2018-07-21T06:48:03.252Z,975.5
2018-07-21T06:49:04.441Z,975.5
2018-07-21T06:50:05.744Z,975.5
2018-07-21T06:51:06.941Z,975.6
2018-07-21T06:52:09.212Z,975.6
2018-07-21T06:53:10.418Z,975.6
2018-07-21T06:54:11.616Z,975.6
2018-07-21T06:55:12.796Z,975.6
2018-07-21T06:56:13.975Z,975.6
2018-07-21T06:57:15.233Z,975.7
2018-07-21T06:58:16.484Z,975.7
2018-07-21T06:59:17.717Z,975.7
2018-07-21T07:00:18.940Z,975.8
2018-07-21T07:01:20.166Z,975.7
2018-07-21T07:02:23.012Z,975.9
2018-07-21T07:03:24.260Z,976
2018-07-21T07:04:25.456Z,975.9
2018-07-21T07:05:26.655Z,975.8
2018-07-21T07:06:27.867Z,975.7
2018-07-21T07:07:29.100Z,975.6
2018-07-21T07:08:30.305Z,975.7
2018-07-21T07:09:31.493Z,975.7
2018-07-21T07:10:32.702Z,975.7
2018-07-21T07:11:35.343Z,975.8
2018-07-21T07:12:36.580Z,975.8
2018-07-21T07:13:37.784Z,975.8
2018-07-21T07:14:39.807Z,975.7
2018-07-21T07:15:41.004Z,975.7
2018-07-21T07:16:42.240Z,975.7
2018-07-21T07:17:43.692Z,975.7
2018-07-21T07:18:44.913Z,975.7
2018-07-21T07:19:46.141Z,975.6
2018-07-21T07:20:47.327Z,975.8
2018-07-21T07:21:48.577Z,975.8
2018-07-21T07:22:49.960Z,975.8
2018-07-21T07:23:51.140Z,975.8
2018-07-21T07:24:52.479Z,975.8
2018-07-21T07:25:53.701Z,975.9
2018-07-21T07:26:54.890Z,976
2018-07-21T07:27:56.127Z,976.1
2018-07-21T07:28:58.420Z,976
2018-07-21T07:29:59.687Z,976
2018-07-21T07:31:00.927Z,975.9
2018-07-21T07:32:02.942Z,975.9
2018-07-21T07:33:04.219Z,975.9
2018-07-21T07:34:05.499Z,975.9
2018-07-21T07:35:07.128Z,975.9
2018-07-21T07:36:08.447Z,975.8
2018-07-21T07:37:09.708Z,975.9
2018-07-21T07:38:18.772Z,975.8
2018-07-21T07:39:19.967Z,975.8
2018-07-21T07:40:21.186Z,975.8
2018-07-21T07:41:22.395Z,975.8
2018-07-21T07:42:23.875Z,975.8
2018-07-21T07:43:27.335Z,975.9
2018-07-21T07:44:28.572Z,975.7
2018-07-21T07:45:29.815Z,975.9
2018-07-21T07:46:31.023Z,975.9
2018-07-21T07:47:32.233Z,975.9
2018-07-21T07:48:33.703Z,975.7
2018-07-21T07:49:34.946Z,975.9
2018-07-21T07:50:36.321Z,975.7
2018-07-21T07:51:37.883Z,975.8
2018-07-21T07:52:39.160Z,975.8
2018-07-21T07:53:42.839Z,975.9
2018-07-21T07:54:44.014Z,975.9
2018-07-21T07:55:46.285Z,975.8
2018-07-21T07:56:47.483Z,975.8
2018-07-21T07:57:48.764Z,975.8
2018-07-21T07:58:50.154Z,975.8
2018-07-21T07:59:51.441Z,975.6
2018-07-21T08:00:52.709Z,975.7
2018-07-21T08:01:54.261Z,975.8
2018-07-21T08:02:55.489Z,975.8
2018-07-21T08:03:56.855Z,975.7
2018-07-21T08:04:58.368Z,975.9
2018-07-21T08:05:59.575Z,975.8
2018-07-21T08:07:00.782Z,975.8
2018-07-21T08:08:02.151Z,975.8
2018-07-21T08:09:03.404Z,975.8
2018-07-21T08:10:04.634Z,975.8
2018-07-21T08:11:05.848Z,975.8
2018-07-21T08:12:07.088Z,975.7
2018-07-21T08:13:08.340Z,975.8
2018-07-21T08:14:09.640Z,975.8
2018-07-21T08:15:10.894Z,975.8
2018-07-21T08:16:12.089Z,975.8
2018-07-21T08:17:13.351Z,975.8
2018-07-21T08:18:15.044Z,975.5
2018-07-21T08:19:16.415Z,975.8
2018-07-21T08:20:17.641Z,975.9
2018-07-21T08:21:21.013Z,975.9
2018-07-21T08:22:22.268Z,976.1
2018-07-21T08:23:23.744Z,976.2
2018-07-21T08:24:25.148Z,976.2
2018-07-21T08:25:26.476Z,976.3
2018-07-21T08:26:27.667Z,976.2
2018-07-21T08:27:28.891Z,976.2
2018-07-21T08:28:30.199Z,976.2
2018-07-21T08:29:31.458Z,976.1
2018-07-21T08:30:32.661Z,976
2018-07-21T08:31:33.890Z,976
2018-07-21T08:32:35.258Z,975.9
2018-07-21T08:33:36.724Z,976
2018-07-21T08:34:39.049Z,976.2
2018-07-21T08:35:40.287Z,976.3
2018-07-21T08:36:41.531Z,976.4
2018-07-21T08:37:42.818Z,976.3
2018-07-21T08:38:44.039Z,976.4
2018-07-21T08:39:45.333Z,976.4
2018-07-21T08:40:46.693Z,976.4
2018-07-21T08:41:47.951Z,976.5
2018-07-21T08:42:49.187Z,976.4
2018-07-21T08:43:50.397Z,976.5
2018-07-21T08:44:51.612Z,976.5
2018-07-21T08:45:52.811Z,976.4
2018-07-21T08:46:54.082Z,976.5
2018-07-21T08:47:55.259Z,976.5
2018-07-21T08:48:56.596Z,976.4
2018-07-21T08:50:01.265Z,976.5
2018-07-21T08:51:02.485Z,976.6
2018-07-21T08:52:03.748Z,976.6
2018-07-21T08:54:20.887Z,976.6
2018-07-21T08:55:22.294Z,976.6
2018-07-21T08:56:23.490Z,976.5
2018-07-21T08:57:24.772Z,976.5
2018-07-21T08:58:26.927Z,976.6
2018-07-21T08:59:29.195Z,976.6
2018-07-21T09:00:30.454Z,976.2
2018-07-21T09:01:31.675Z,976.5
2018-07-21T09:02:32.927Z,976.5
2018-07-21T09:03:34.174Z,976.5
2018-07-21T09:04:35.637Z,976.5
2018-07-21T09:05:36.953Z,976.5
2018-07-21T09:06:38.245Z,976.6
2018-07-21T09:07:39.522Z,976.6
2018-07-21T09:08:40.775Z,976.7
2018-07-21T09:09:42.040Z,976.7
2018-07-21T09:10:43.260Z,976.8
2018-07-21T09:11:46.777Z,976.8
2018-07-21T09:12:49.063Z,976.7
2018-07-21T09:13:50.263Z,976.7
2018-07-21T09:14:51.503Z,976.7
2018-07-21T09:15:52.779Z,976.6
2018-07-21T09:16:54.000Z,976.6
2018-07-21T09:17:55.351Z,976.6
2018-07-21T09:18:56.647Z,976.4
2018-07-21T09:19:57.879Z,976.4
2018-07-21T09:21:00.192Z,976.5
2018-07-21T09:22:02.718Z,976.6
2018-07-21T09:23:03.974Z,976.6
2018-07-21T09:24:12.667Z,976.5
2018-07-21T09:25:16.754Z,976.6
2018-07-21T09:26:28.155Z,976.7
2018-07-21T09:27:29.379Z,977
2018-07-21T09:28:32.315Z,976.9
2018-07-21T09:29:33.527Z,976.9
2018-07-21T09:30:37.019Z,976.8
2018-07-21T09:31:41.443Z,976.9
2018-07-21T09:32:42.661Z,977
2018-07-21T09:33:44.123Z,977
2018-07-21T09:34:48.400Z,976.7
2018-07-21T09:35:49.678Z,976.9
2018-07-21T09:36:52.892Z,977.3
2018-07-21T09:37:54.142Z,977.4
2018-07-21T09:38:55.371Z,977.5
2018-07-21T09:39:56.654Z,977.3
2018-07-21T09:40:57.869Z,977.9
2018-07-21T09:42:01.612Z,977.5
2018-07-21T09:43:04.855Z,977.6
2018-07-21T09:44:09.110Z,976.8
2018-07-21T09:45:10.447Z,976.7
2018-07-21T09:46:15.329Z,976.4
2018-07-21T09:47:16.935Z,976.2
2018-07-21T09:48:19.135Z,976.1
2018-07-21T09:49:31.552Z,976.1
2018-07-21T09:50:36.372Z,976.1
2018-07-21T09:51:37.643Z,976.3
2018-07-21T09:52:42.435Z,976.2
2018-07-21T09:53:48.611Z,976.3
2018-07-21T09:54:49.859Z,976.2
2018-07-21T09:55:51.242Z,976
2018-07-21T09:56:52.456Z,976.1
2018-07-21T09:57:53.794Z,976
2018-07-21T09:58:55.317Z,976.1
2018-07-21T09:59:56.589Z,976.1
2018-07-21T10:00:57.851Z,976.2
2018-07-21T10:02:01.279Z,976
2018-07-21T10:03:02.548Z,976
2018-07-21T10:04:03.764Z,976.1
2018-07-21T10:05:04.974Z,976
2018-07-21T10:06:11.973Z,976
2018-07-21T10:07:15.591Z,976.1
2018-07-21T10:08:18.206Z,975.9
2018-07-21T10:10:36.979Z,976
2018-07-21T10:11:39.374Z,976
2018-07-21T10:12:40.665Z,976
2018-07-21T10:13:42.304Z,976.2
2018-07-21T10:14:43.541Z,975.9
2018-07-21T10:15:44.727Z,975.8
2018-07-21T10:16:45.940Z,975.8
2018-07-21T10:17:47.168Z,975.9
2018-07-21T10:18:48.480Z,975.9
2018-07-21T10:19:52.128Z,975.9
2018-07-21T10:20:53.394Z,975.9
2018-07-21T10:21:54.663Z,976.3
2018-07-21T10:22:55.833Z,975.9
2018-07-21T10:23:59.165Z,976
2018-07-21T10:25:00.478Z,976.3
2018-07-21T10:26:01.685Z,976.4
2018-07-21T10:27:02.892Z,976
2018-07-21T10:28:10.097Z,975.9
2018-07-21T10:29:11.353Z,975.8
2018-07-21T10:30:12.641Z,975.8
2018-07-21T10:31:16.216Z,975.7
2018-07-21T10:32:17.506Z,975.7
2018-07-21T10:33:18.833Z,975.9
2018-07-21T10:34:21.286Z,975.8
2018-07-21T10:35:22.531Z,976
2018-07-21T10:36:24.035Z,976.2
2018-07-21T10:37:25.247Z,975.8
2018-07-21T10:38:26.492Z,975.7
2018-07-21T10:39:27.875Z,975.7
2018-07-21T10:40:31.696Z,975.7
2018-07-21T10:41:32.920Z,976
2018-07-21T10:42:34.421Z,976
2018-07-21T10:43:35.620Z,975.8
2018-07-21T10:44:37.007Z,975.9
2018-07-21T10:45:41.667Z,975.7
2018-07-21T10:46:43.125Z,976
2018-07-21T10:47:45.922Z,976
2018-07-21T10:48:47.258Z,975.7
2018-07-21T10:49:48.496Z,975.5
2018-07-21T10:50:49.736Z,975.5
2018-07-21T10:51:54.155Z,975.6
2018-07-21T10:52:58.262Z,975.5
2018-07-21T10:53:59.451Z,975.5
2018-07-21T10:55:01.688Z,975.5
2018-07-21T10:56:02.910Z,975.7
2018-07-21T10:57:05.123Z,975.7
2018-07-21T10:58:06.412Z,975.9
2018-07-21T10:59:09.951Z,975.9
2018-07-21T11:00:13.269Z,975.8
2018-07-21T11:01:14.519Z,975.7
2018-07-21T11:02:18.015Z,975.7
2018-07-21T11:03:19.247Z,975.7
2018-07-21T11:04:20.741Z,975.7
2018-07-21T11:05:22.147Z,975.8
2018-07-21T11:06:23.432Z,975.8
2018-07-21T11:07:24.979Z,975.7
2018-07-21T11:08:28.344Z,975.5
2018-07-21T11:09:32.119Z,975.7
2018-07-21T11:10:38.503Z,975.6
2018-07-21T11:11:39.721Z,975.5
2018-07-21T11:12:48.755Z,975.7
2018-07-21T11:13:50.513Z,975.7
2018-07-21T11:14:54.281Z,975.7
2018-07-21T11:15:55.650Z,975.7
2018-07-21T11:16:59.608Z,975.6
2018-07-21T11:18:05.300Z,975.6
2018-07-21T11:19:06.510Z,975.6
2018-07-21T11:20:10.150Z,975.7
2018-07-21T11:21:14.433Z,975.8
2018-07-21T11:22:15.655Z,975.8
2018-07-21T11:23:16.918Z,975.9
2018-07-21T11:24:21.475Z,975.8
2018-07-21T11:25:27.555Z,975.7
2018-07-21T11:26:45.630Z,975.7
2018-07-21T11:27:49.431Z,975.8
2018-07-21T11:28:53.732Z,975.9
2018-07-21T11:30:02.683Z,976
2018-07-21T11:31:04.335Z,975.8
2018-07-21T11:32:07.872Z,975.7
2018-07-21T11:33:09.261Z,975.7
2018-07-21T11:34:10.724Z,975.6
2018-07-21T11:35:12.236Z,975.5
2018-07-21T11:36:13.595Z,975.4
2018-07-21T11:37:29.117Z,975.5
2018-07-21T11:38:30.715Z,975.5
2018-07-21T11:39:32.033Z,975.5
2018-07-21T11:40:33.247Z,975.5
2018-07-21T11:41:37.687Z,975.5
2018-07-21T11:42:41.483Z,975.6
2018-07-21T11:43:42.776Z,975.5
2018-07-21T11:44:43.988Z,975.6
2018-07-21T11:45:45.232Z,975.5
2018-07-21T11:46:46.684Z,975.5
2018-07-21T11:47:49.865Z,975.6
2018-07-21T11:48:51.122Z,975.6
2018-07-21T11:49:52.549Z,975.6
2018-07-21T11:50:53.758Z,975.6
2018-07-21T11:51:55.101Z,975.7
2018-07-21T11:52:56.346Z,975.7
2018-07-21T11:53:57.959Z,975.6
2018-07-21T11:54:59.509Z,975.6
2018-07-21T11:56:00.821Z,975.7
2018-07-21T11:57:04.425Z,975.6
2018-07-21T11:58:05.772Z,975.6
2018-07-21T11:59:07.021Z,975.7
2018-07-21T12:00:08.329Z,975.7
2018-07-21T12:01:09.556Z,975.7
2018-07-21T12:02:10.861Z,975.7
2018-07-21T12:03:12.152Z,975.8
2018-07-21T12:04:23.432Z,975.8
2018-07-21T12:05:24.681Z,975.7
2018-07-21T12:06:26.177Z,975.7
2018-07-21T12:09:01.174Z,975.8
2018-07-21T12:10:21.396Z,975.9
2018-07-21T12:11:33.392Z,975.8
2018-07-21T12:12:34.730Z,975.9
2018-07-21T12:13:36.049Z,975.9
2018-07-21T12:14:38.283Z,975.9
2018-07-21T12:15:39.475Z,975.9
2018-07-21T12:16:48.286Z,976
2018-07-21T12:17:50.642Z,975.9
2018-07-21T12:18:54.388Z,975.9
2018-07-21T12:19:55.697Z,975.9
2018-07-21T12:20:57.151Z,975.8
2018-07-21T12:21:58.459Z,975.8
2018-07-21T12:22:59.795Z,975.9
2018-07-21T12:24:01.362Z,975.9
2018-07-21T12:25:02.719Z,975.8
2018-07-21T12:26:11.181Z,976
2018-07-21T12:27:12.539Z,976
2018-07-21T12:28:13.792Z,976
2018-07-21T12:29:22.232Z,976
2018-07-21T12:30:23.595Z,976
2018-07-21T12:31:28.510Z,976
2018-07-21T12:32:31.915Z,976
2018-07-21T12:33:33.233Z,976
2018-07-21T12:34:35.024Z,975.9
2018-07-21T12:35:37.650Z,976
2018-07-21T12:36:39.353Z,976.1
2018-07-21T12:37:40.645Z,976.1
2018-07-21T12:38:42.313Z,976
2018-07-21T12:39:43.525Z,976.1
2018-07-21T12:40:44.776Z,976.2
2018-07-21T12:41:46.064Z,976.2
2018-07-21T12:42:47.581Z,976.2
2018-07-21T12:43:48.813Z,976.2
2018-07-21T12:44:52.264Z,976.1
2018-07-21T12:45:53.573Z,976.2
2018-07-21T12:46:54.823Z,976.1
2018-07-21T12:47:56.036Z,976.2
2018-07-21T12:48:57.278Z,976.1
2018-07-21T12:50:00.021Z,976.2
2018-07-21T12:51:01.328Z,976.2
2018-07-21T12:52:03.479Z,976.3
2018-07-21T12:53:04.683Z,976.4
2018-07-21T12:54:07.183Z,976.4
2018-07-21T12:55:20.286Z,976.3
2018-07-21T12:56:22.836Z,976.3
2018-07-21T12:58:41.173Z,976.3
2018-07-21T12:59:44.071Z,976.3
2018-07-21T13:00:45.330Z,976.2
2018-07-21T13:01:46.736Z,976.3
2018-07-21T13:02:51.804Z,976.3
2018-07-21T13:03:55.451Z,976.3
2018-07-21T13:05:05.235Z,976.3
2018-07-21T13:06:06.548Z,976.3
2018-07-21T13:07:10.431Z,976.4
2018-07-21T13:08:23.369Z,976.4
2018-07-21T13:09:24.675Z,976.4
2018-07-21T13:10:36.173Z,976.5
2018-07-21T13:11:38.442Z,976.5
2018-07-21T13:12:40.716Z,976.5
2018-07-21T13:13:46.942Z,976.5
2018-07-21T13:14:48.243Z,976.5
2018-07-21T13:15:50.555Z,976.5
2018-07-21T13:16:59.760Z,976.5
2018-07-21T13:18:04.584Z,976.3
2018-07-21T13:19:08.374Z,976.4
2018-07-21T13:20:09.624Z,976.4
2018-07-21T13:21:10.834Z,976.6
2018-07-21T13:22:12.359Z,976.5
2018-07-21T13:23:13.860Z,976.4
2018-07-21T13:24:15.113Z,976.5
2018-07-21T13:25:18.736Z,976.4
2018-07-21T13:26:20.239Z,976.3
2018-07-21T13:27:21.463Z,976.6